Time;durP1;ratioP1;P1;durP2;ratioP2;P2;SDS_P1;SDS_P2;PMS_P1;PMS_P2;Temp;Humidity;BMP_temperature;BMP_pressure;BME280_temperature;BME280_humidity;BME280_pressure;Samples;Min_cycle;Max_cycle;Signal;HPM_P1;HPM_P2
2021/12/27 00:00:08;;;;;;;;;;;;;;;;;;5044473;28;1251;-75
2021/12/27 00:02:38;;;;;;;;;;;;;;;;;;5044857;28;1324;-75
2021/12/27 00:05:04;;;;;;;;;;;;;;;;;;5047062;28;1231;-74
2021/12/27 00:07:30;;;;;;;;;;;;;;;;;;5064362;28;1890;-74
2021/12/27 00:09:55;;;;;;;;;;;;;;;;;;5045662;28;1202;-75
2021/12/27 00:12:20;;;;;;;;;;;;;;;;;;5031215;28;1333;-75
2021/12/27 00:14:46;;;;;;;;;;;;;;;;;;5043534;28;1266;-75
2021/12/27 00:17:15;;;;;;;;;;;;;;;;;;5063617;28;1117;-75
2021/12/27 00:19:41;;;;;;;;;;;;;;;;;;5044892;28;1334;-75
2021/12/27 00:22:07;;;;;;;;;;;;;;;;;;5028816;28;1215;-75
2021/12/27 00:24:33;;;;;;;;;;;;;;;;;;5028663;28;1052;-76
2021/12/27 00:26:58;;;;;;;;;;;;;;;;;;5028266;28;1902;-75
2021/12/27 00:29:23;;;;;;;;;;;;;;;;;;5042569;28;1384;-75
2021/12/27 00:31:49;;;;;;;;;;;;;;;;;;5027115;28;1349;-75
2021/12/27 00:34:14;;;;;;;;;;;;;;;;;;5061186;28;1089;-75
2021/12/27 00:36:40;;;;;;;;;;;;;;;;;;5029110;28;1313;-75
2021/12/27 00:39:06;;;;;;;;;;;;;;;;;;5045260;28;1102;-75
2021/12/27 00:41:31;;;;;;;;;;;;;;;;;;5045280;28;1153;-75
2021/12/27 00:43:57;;;;;;;;;;;;;;;;;;5033213;28;1281;-75
2021/12/27 00:46:22;;;;;;;;;;;;;;;;;;5084696;28;1251;-75
2021/12/27 00:48:47;;;;;;;;;;;;;;;;;;5061454;28;1980;-75
2021/12/27 00:51:13;;;;;;;;;;;;;;;;;;5065461;28;1145;-75
2021/12/27 00:53:38;;;;;;;;;;;;;;;;;;5066682;28;1200;-76
2021/12/27 00:56:04;;;;;;;;;;;;;;;;;;5048838;28;1394;-75
2021/12/27 00:58:29;;;;;;;;;;;;;;;;;;5083622;28;1220;-75
2021/12/27 01:00:55;;;;;;;;;;;;;;;;;;5080836;28;1319;-75
2021/12/27 01:03:20;;;;;;;;;;;;;;;;;;5064006;28;1106;-75
2021/12/27 01:05:46;;;;;;;;;;;;;;;;;;5066002;28;1223;-76
2021/12/27 01:08:12;;;;;;;;;;;;;;;;;;5085000;28;1894;-75
2021/12/27 01:13:45;;;;;;;;;;;;;;;;;;5068502;28;1021;-75
2021/12/27 01:16:12;;;;;;;;;;;;;;;;;;5049686;28;1282;-76
2021/12/27 01:18:39;;;;;;;;;;;;;;;;;;5066190;28;1260;-75
2021/12/27 01:21:04;;;;;;;;;;;;;;;;;;5068189;28;1643;-75
2021/12/27 01:23:30;;;;;;;;;;;;;;;;;;5087972;28;1100;-75
2021/12/27 01:25:55;;;;;;;;;;;;;;;;;;5086841;28;1077;-76
2021/12/27 01:28:20;;;;;;;;;;;;;;;;;;5069216;28;1957;-76
2021/12/27 01:30:49;;;;;;;;;;;;;;;;;;5051487;28;1474;-76
2021/12/27 01:33:15;;;;;;;;;;;;;;;;;;5066751;28;1191;-76
2021/12/27 01:35:40;;;;;;;;;;;;;;;;;;5053251;28;1293;-76
2021/12/27 01:38:05;;;;;;;;;;;;;;;;;;5067404;28;1302;-76
2021/12/27 01:40:31;;;;;;;;;;;;;;;;;;5087141;28;1231;-77
2021/12/27 01:42:59;;;;;;;;;;;;;;;;;;5067502;28;1269;-76
2021/12/27 01:45:24;;;;;;;;;;;;;;;;;;5086582;28;1203;-75
2021/12/27 01:47:50;;;;;;;;;;;;;;;;;;5065070;28;1981;-75
2021/12/27 01:50:15;;;;;;;;;;;;;;;;;;5069309;28;1160;-76
2021/12/27 01:52:41;;;;;;;;;;;;;;;;;;5037201;28;1149;-76
2021/12/27 01:55:06;;;;;;;;;;;;;;;;;;5072615;28;1208;-76
2021/12/27 01:57:31;;;;;;;;;;;;;;;;;;5050934;28;1117;-75
2021/12/27 01:59:56;;;;;;;;;;;;;;;;;;5038900;28;1309;-76
2021/12/27 02:02:22;;;;;;;;;;;;;;;;;;5049252;28;1158;-75
2021/12/27 02:04:48;;;;;;;;;;;;;;;;;;5040432;28;1217;-76
2021/12/27 02:07:13;;;;;;;;;;;;;;;;;;5030418;28;1890;-75
2021/12/27 02:09:49;;;;;;;;;;;;;;;;;;5049406;28;1246;-75
2021/12/27 02:12:15;;;;;;;;;;;;;;;;;;5052681;28;1217;-75
2021/12/27 02:14:40;;;;;;;;;;;;;;;;;;5069013;28;1241;-75
2021/12/27 02:17:17;;;;;;;;;;;;;;;;;;5031861;28;1205;-77
2021/12/27 02:19:55;;;;;;;;;;;;;;;;;;5048920;28;1319;-76
2021/12/27 02:22:23;;;;;;;;;;;;;;;;;;5066186;28;1177;-75
2021/12/27 02:24:55;;;;;;;;;;;;;;;;;;5081221;28;1225;-76
2021/12/27 02:27:20;;;;;;;;;;;;;;;;;;5056616;28;1890;-77
2021/12/27 02:29:46;;;;;;;;;;;;;;;;;;5032365;28;1372;-76
2021/12/27 02:32:15;;;;;;;;;;;;;;;;;;5065741;28;1311;-76
2021/12/27 02:34:40;;;;;;;;;;;;;;;;;;5086973;28;1204;-75
2021/12/27 02:37:09;;;;;;;;;;;;;;;;;;5066025;28;1280;-75
2021/12/27 02:39:34;;;;;;;;;;;;;;;;;;5060994;28;1229;-76
2021/12/27 02:41:59;;;;;;;;;;;;;;;;;;5030276;28;1250;-76
2021/12/27 02:44:25;;;;;;;;;;;;;;;;;;5043600;28;1333;-76
2021/12/27 02:46:52;;;;;;;;;;;;;;;;;;5052629;28;1914;-75
2021/12/27 02:49:18;;;;;;;;;;;;;;;;;;5063654;28;1222;-75
2021/12/27 02:51:43;;;;;;;;;;;;;;;;;;5051750;28;1247;-75
2021/12/27 02:54:08;;;;;;;;;;;;;;;;;;5084632;28;1161;-75
2021/12/27 02:56:35;;;;;;;;;;;;;;;;;;5051445;28;1233;-76
2021/12/27 02:59:00;;;;;;;;;;;;;;;;;;5083713;28;1263;-77
2021/12/27 03:01:26;;;;;;;;;;;;;;;;;;5086571;28;1275;-76
2021/12/27 03:03:57;;;;;;;;;;;;;;;;;;5084270;28;1165;-76
2021/12/27 03:06:22;;;;;;;;;;;;;;;;;;5051053;28;1236;-77
2021/12/27 03:08:48;;;;;;;;;;;;;;;;;;5067468;28;1885;-76
2021/12/27 03:11:13;;;;;;;;;;;;;;;;;;5049902;28;1275;-74
2021/12/27 03:13:40;;;;;;;;;;;;;;;;;;5051560;28;1274;-73
2021/12/27 03:16:07;;;;;;;;;;;;;;;;;;5082860;28;1132;-75
2021/12/27 03:18:33;;;;;;;;;;;;;;;;;;5065781;28;1191;-74
2021/12/27 03:20:58;;;;;;;;;;;;;;;;;;5066250;28;1676;-74
2021/12/27 03:23:24;;;;;;;;;;;;;;;;;;5085264;28;1188;-74
2021/12/27 03:25:49;;;;;;;;;;;;;;;;;;5066520;28;1129;-76
2021/12/27 03:28:15;;;;;;;;;;;;;;;;;;5064729;28;1953;-76
2021/12/27 03:30:40;;;;;;;;;;;;;;;;;;5065800;28;1172;-75
2021/12/27 03:33:06;;;;;;;;;;;;;;;;;;5062977;28;1251;-75
2021/12/27 03:35:36;;;;;;;;;;;;;;;;;;5049584;28;1219;-75
2021/12/27 03:38:03;;;;;;;;;;;;;;;;;;5084359;28;1287;-74
2021/12/27 03:40:28;;;;;;;;;;;;;;;;;;5084180;28;1156;-74
2021/12/27 03:42:55;;;;;;;;;;;;;;;;;;5067996;28;1296;-75
2021/12/27 03:45:28;;;;;;;;;;;;;;;;;;5037493;28;1229;-75
2021/12/27 03:47:53;;;;;;;;;;;;;;;;;;5083715;28;1910;-74
2021/12/27 03:50:19;;;;;;;;;;;;;;;;;;5084192;28;1243;-74
2021/12/27 03:52:44;;;;;;;;;;;;;;;;;;5066401;28;1301;-73
2021/12/27 03:55:10;;;;;;;;;;;;;;;;;;5064808;28;1292;-75
2021/12/27 03:57:38;;;;;;;;;;;;;;;;;;5084747;28;1188;-75
2021/12/27 04:02:51;;;;;;;;;;;;;;;;;;5062150;28;1534;-76
2021/12/27 04:05:17;;;;;;;;;;;;;;;;;;5065195;28;1256;-76
2021/12/27 04:07:47;;;;;;;;;;;;;;;;;;5066651;28;1870;-75
2021/12/27 04:10:12;;;;;;;;;;;;;;;;;;5083218;28;1018;-74
2021/12/27 04:12:38;;;;;;;;;;;;;;;;;;5084287;28;1117;-75
2021/12/27 04:15:05;;;;;;;;;;;;;;;;;;5047364;28;1301;-74
2021/12/27 04:17:30;;;;;;;;;;;;;;;;;;5082882;28;1193;-75
2021/12/27 04:19:55;;;;;;;;;;;;;;;;;;5049622;28;1192;-74
2021/12/27 04:22:21;;;;;;;;;;;;;;;;;;5082575;28;1041;-75
2021/12/27 04:24:46;;;;;;;;;;;;;;;;;;5065444;28;1239;-74
2021/12/27 04:27:12;;;;;;;;;;;;;;;;;;5047472;28;1961;-74
2021/12/27 04:29:37;;;;;;;;;;;;;;;;;;5047968;28;1243;-75
2021/12/27 04:32:03;;;;;;;;;;;;;;;;;;5084189;28;1196;-74
2021/12/27 04:34:28;;;;;;;;;;;;;;;;;;5064402;28;1100;-74
2021/12/27 04:36:53;;;;;;;;;;;;;;;;;;5066396;28;1109;-74
2021/12/27 04:39:18;;;;;;;;;;;;;;;;;;5046593;28;1153;-75
2021/12/27 04:41:44;;;;;;;;;;;;;;;;;;5084064;28;1205;-75
2021/12/27 04:44:09;;;;;;;;;;;;;;;;;;5051829;28;1511;-75
2021/12/27 04:46:35;;;;;;;;;;;;;;;;;;5084030;28;1914;-76
2021/12/27 04:49:04;;;;;;;;;;;;;;;;;;5073556;28;1121;-74
2021/12/27 04:51:29;;;;;;;;;;;;;;;;;;5045655;28;1233;-74
2021/12/27 04:53:54;;;;;;;;;;;;;;;;;;5032789;28;1308;-74
2021/12/27 04:56:20;;;;;;;;;;;;;;;;;;5034952;28;1118;-73
2021/12/27 04:58:47;;;;;;;;;;;;;;;;;;5053123;28;1346;-75
2021/12/27 05:01:13;;;;;;;;;;;;;;;;;;5066408;28;1267;-74
2021/12/27 05:03:39;;;;;;;;;;;;;;;;;;5075379;28;1168;-74
2021/12/27 05:06:06;;;;;;;;;;;;;;;;;;5072373;28;1193;-76
2021/12/27 05:08:32;;;;;;;;;;;;;;;;;;5069224;28;1882;-74
2021/12/27 05:10:57;;;;;;;;;;;;;;;;;;5069783;28;1242;-74
2021/12/27 05:13:22;;;;;;;;;;;;;;;;;;5051720;28;1358;-74
2021/12/27 05:15:48;;;;;;;;;;;;;;;;;;5032049;28;1144;-75
2021/12/27 05:18:13;;;;;;;;;;;;;;;;;;5047901;28;1142;-74
2021/12/27 05:20:38;;;;;;;;;;;;;;;;;;5073253;28;1189;-75
2021/12/27 05:23:07;;;;;;;;;;;;;;;;;;5045629;28;1359;-75
2021/12/27 05:25:33;;;;;;;;;;;;;;;;;;5048839;28;1217;-74
2021/12/27 05:27:58;;;;;;;;;;;;;;;;;;5048908;28;1946;-74
2021/12/27 05:30:23;;;;;;;;;;;;;;;;;;5029112;28;1436;-74
2021/12/27 05:32:48;;;;;;;;;;;;;;;;;;5033293;28;1214;-75
2021/12/27 05:35:14;;;;;;;;;;;;;;;;;;5048677;28;1232;-75
2021/12/27 05:37:40;;;;;;;;;;;;;;;;;;5053094;28;1361;-74
2021/12/27 05:40:15;;;;;;;;;;;;;;;;;;5069538;28;1282;-74
2021/12/27 05:42:41;;;;;;;;;;;;;;;;;;5053832;28;1290;-75
2021/12/27 05:45:10;;;;;;;;;;;;;;;;;;5084954;28;1255;-75
2021/12/27 05:47:35;;;;;;;;;;;;;;;;;;5066940;28;1922;-74
2021/12/27 05:50:02;;;;;;;;;;;;;;;;;;5071469;28;1363;-74
2021/12/27 05:52:27;;;;;;;;;;;;;;;;;;5052489;28;1339;-76
2021/12/27 05:54:52;;;;;;;;;;;;;;;;;;5040412;28;1433;-76
2021/12/27 05:57:19;;;;;;;;;;;;;;;;;;5057265;28;1314;-76
2021/12/27 05:59:45;;;;;;;;;;;;;;;;;;5048306;28;1302;-75
2021/12/27 06:02:20;;;;;;;;;;;;;;;;;;5068145;28;1175;-75
2021/12/27 06:04:46;;;;;;;;;;;;;;;;;;5069273;28;1426;-74
2021/12/27 06:07:16;;;;;;;;;;;;;;;;;;5084973;28;1967;-78
2021/12/27 06:09:42;;;;;;;;;;;;;;;;;;5052667;28;1283;-75
2021/12/27 06:12:07;;;;;;;;;;;;;;;;;;5047079;28;1224;-76
2021/12/27 06:14:32;;;;;;;;;;;;;;;;;;5054148;28;1412;-76
2021/12/27 06:16:57;;;;;;;;;;;;;;;;;;5065715;28;1141;-76
2021/12/27 06:19:23;;;;;;;;;;;;;;;;;;5035680;28;1312;-75
2021/12/27 06:21:48;;;;;;;;;;;;;;;;;;5046521;28;1304;-73
2021/12/27 06:24:14;;;;;;;;;;;;;;;;;;5038967;28;1193;-74
2021/12/27 06:26:40;;;;;;;;;;;;;;;;;;5062193;28;1945;-74
2021/12/27 06:29:05;;;;;;;;;;;;;;;;;;5056631;28;1331;-75
2021/12/27 06:31:30;;;;;;;;;;;;;;;;;;5047431;28;1094;-74
2021/12/27 06:33:56;;;;;;;;;;;;;;;;;;5031801;28;1371;-74
2021/12/27 06:36:21;;;;;;;;;;;;;;;;;;5047007;28;1323;-74
2021/12/27 06:38:46;;;;;;;;;;;;;;;;;;5081464;28;1164;-74
2021/12/27 06:41:23;;;;;;;;;;;;;;;;;;5031166;28;1294;-75
2021/12/27 06:43:54;;;;;;;;;;;;;;;;;;5067218;28;1309;-76
2021/12/27 06:46:19;;;;;;;;;;;;;;;;;;5051214;28;1255;-75
2021/12/27 06:48:45;;;;;;;;;;;;;;;;;;5067495;28;1985;-75
2021/12/27 06:51:10;;;;;;;;;;;;;;;;;;5066436;28;1215;-75
2021/12/27 06:53:36;;;;;;;;;;;;;;;;;;5066590;28;1209;-74
2021/12/27 06:56:02;;;;;;;;;;;;;;;;;;5068888;28;1347;-74
2021/12/27 06:58:27;;;;;;;;;;;;;;;;;;5066709;28;1094;-75
2021/12/27 07:00:53;;;;;;;;;;;;;;;;;;5065787;28;1484;-75
2021/12/27 07:03:18;;;;;;;;;;;;;;;;;;5084220;28;1218;-76
2021/12/27 07:05:44;;;;;;;;;;;;;;;;;;5068412;28;1148;-74
2021/12/27 07:08:09;;;;;;;;;;;;;;;;;;5051433;28;1934;-75
2021/12/27 07:10:35;;;;;;;;;;;;;;;;;;5065471;28;1215;-74
2021/12/27 07:13:03;;;;;;;;;;;;;;;;;;5047406;28;1451;-74
2021/12/27 07:15:29;;;;;;;;;;;;;;;;;;5035901;28;1180;-75
2021/12/27 07:17:54;;;;;;;;;;;;;;;;;;5065802;28;1176;-75
2021/12/27 07:20:20;;;;;;;;;;;;;;;;;;5086201;28;1278;-75
2021/12/27 07:22:46;;;;;;;;;;;;;;;;;;5051332;28;1168;-73
2021/12/27 07:25:11;;;;;;;;;;;;;;;;;;5079343;28;1222;-74
2021/12/27 07:27:37;;;;;;;;;;;;;;;;;;5046263;28;1902;-75
2021/12/27 07:30:04;;;;;;;;;;;;;;;;;;5073577;28;1109;-74
2021/12/27 07:32:29;;;;;;;;;;;;;;;;;;5074636;28;1284;-74
2021/12/27 07:34:55;;;;;;;;;;;;;;;;;;5050693;28;1288;-73
2021/12/27 07:37:23;;;;;;;;;;;;;;;;;;5084429;28;1223;-74
2021/12/27 07:39:48;;;;;;;;;;;;;;;;;;5086632;28;1315;-74
2021/12/27 07:42:14;;;;;;;;;;;;;;;;;;5067873;28;1217;-74
2021/12/27 07:44:39;;;;;;;;;;;;;;;;;;5066626;28;1220;-74
2021/12/27 07:47:05;;;;;;;;;;;;;;;;;;5068436;28;1905;-75
2021/12/27 07:49:31;;;;;;;;;;;;;;;;;;5048497;28;1297;-75
2021/12/27 07:51:57;;;;;;;;;;;;;;;;;;5065996;28;1252;-75
2021/12/27 07:54:25;;;;;;;;;;;;;;;;;;5065869;28;1196;-75
2021/12/27 07:56:50;;;;;;;;;;;;;;;;;;5068129;28;1337;-75
2021/12/27 07:59:16;;;;;;;;;;;;;;;;;;5047956;28;1362;-76
2021/12/27 08:01:41;;;;;;;;;;;;;;;;;;5047996;28;1196;-76
2021/12/27 08:04:08;;;;;;;;;;;;;;;;;;5080683;28;1133;-76
2021/12/27 08:06:34;;;;;;;;;;;;;;;;;;5084364;28;1140;-76
2021/12/27 08:08:59;;;;;;;;;;;;;;;;;;5066640;28;1939;-76
2021/12/27 08:11:26;;;;;;;;;;;;;;;;;;5064900;28;1153;-76
2021/12/27 08:13:53;;;;;;;;;;;;;;;;;;5057841;28;1203;-76
2021/12/27 08:16:23;;;;;;;;;;;;;;;;;;5050840;28;1280;-76
2021/12/27 08:18:49;;;;;;;;;;;;;;;;;;5063449;28;1265;-75
2021/12/27 08:21:16;;;;;;;;;;;;;;;;;;5066125;28;1335;-76
2021/12/27 08:23:41;;;;;;;;;;;;;;;;;;5044053;28;1493;-74
2021/12/27 08:26:07;;;;;;;;;;;;;;;;;;5084407;28;1350;-75
2021/12/27 08:28:32;;;;;;;;;;;;;;;;;;5083766;28;1898;-74
2021/12/27 08:30:57;;;;;;;;;;;;;;;;;;5082973;28;1307;-73
2021/12/27 08:33:23;;;;;;;;;;;;;;;;;;5082001;28;1204;-74
2021/12/27 08:35:49;;;;;;;;;;;;;;;;;;5049716;28;1144;-74
2021/12/27 08:38:16;;;;;;;;;;;;;;;;;;5085037;28;1168;-74
2021/12/27 08:40:41;;;;;;;;;;;;;;;;;;5079952;28;1188;-75
2021/12/27 08:43:06;;;;;;;;;;;;;;;;;;5081538;28;1201;-75
2021/12/27 08:45:32;;;;;;;;;;;;;;;;;;5061362;28;1156;-74
2021/12/27 08:47:58;;;;;;;;;;;;;;;;;;5063973;28;1909;-75
2021/12/27 08:50:24;;;;;;;;;;;;;;;;;;5065723;28;1251;-73
2021/12/27 08:52:50;;;;;;;;;;;;;;;;;;5063761;28;1161;-74
2021/12/27 08:55:16;;;;;;;;;;;;;;;;;;5066604;28;1045;-74
2021/12/27 08:57:42;;;;;;;;;;;;;;;;;;5084612;28;1227;-75
2021/12/27 09:00:09;;;;;;;;;;;;;;;;;;5073716;28;1212;-75
2021/12/27 09:02:34;;;;;;;;;;;;;;;;;;5062149;28;1264;-75
2021/12/27 09:04:59;;;;;;;;;;;;;;;;;;5061393;28;1490;-75
2021/12/27 09:07:29;;;;;;;;;;;;;;;;;;5060247;28;1890;-75
2021/12/27 09:09:55;;;;;;;;;;;;;;;;;;5046944;28;1137;-75
2021/12/27 09:12:20;;;;;;;;;;;;;;;;;;5079085;28;1207;-75
2021/12/27 09:14:46;;;;;;;;;;;;;;;;;;5076391;28;1235;-75
2021/12/27 09:17:12;;;;;;;;;;;;;;;;;;5059587;28;1199;-75
2021/12/27 09:19:37;;;;;;;;;;;;;;;;;;5056359;28;1200;-75
2021/12/27 09:22:03;;;;;;;;;;;;;;;;;;5064660;28;1270;-76
2021/12/27 09:24:31;;;;;;;;;;;;;;;;;;5080622;28;1152;-75
2021/12/27 09:26:56;;;;;;;;;;;;;;;;;;5052941;28;1902;-75
2021/12/27 09:29:21;;;;;;;;;;;;;;;;;;5050935;28;1522;-75
2021/12/27 09:31:47;;;;;;;;;;;;;;;;;;5086302;28;1038;-75
2021/12/27 09:34:12;;;;;;;;;;;;;;;;;;5085458;28;1172;-75
2021/12/27 09:36:37;;;;;;;;;;;;;;;;;;5065032;28;1219;-75
2021/12/27 09:39:03;;;;;;;;;;;;;;;;;;5069446;28;1387;-75
2021/12/27 09:41:29;;;;;;;;;;;;;;;;;;5070276;28;1415;-76
2021/12/27 09:43:55;;;;;;;;;;;;;;;;;;5049862;28;1513;-75
2021/12/27 09:46:21;;;;;;;;;;;;;;;;;;5083734;28;1172;-77
2021/12/27 09:48:47;;;;;;;;;;;;;;;;;;5083684;28;1917;-76
2021/12/27 09:51:12;;;;;;;;;;;;;;;;;;5070123;28;1279;-76
2021/12/27 09:53:38;;;;;;;;;;;;;;;;;;5086470;28;1069;-77
2021/12/27 09:56:07;;;;;;;;;;;;;;;;;;5084352;28;1172;-76
2021/12/27 09:58:34;;;;;;;;;;;;;;;;;;5087569;28;1256;-76
2021/12/27 10:01:02;;;;;;;;;;;;;;;;;;5050866;28;1249;-75
2021/12/27 10:03:28;;;;;;;;;;;;;;;;;;5066847;28;1268;-75
2021/12/27 10:05:53;;;;;;;;;;;;;;;;;;5085881;28;1287;-76
2021/12/27 10:08:19;;;;;;;;;;;;;;;;;;5051618;28;1944;-75
2021/12/27 10:10:45;;;;;;;;;;;;;;;;;;5067392;28;1175;-75
2021/12/27 10:13:11;;;;;;;;;;;;;;;;;;5086460;28;1176;-75
2021/12/27 10:15:38;;;;;;;;;;;;;;;;;;5048228;28;1455;-76
2021/12/27 10:18:22;;;;;;;;;;;;;;;;;;5084593;28;1246;-76
2021/12/27 10:20:47;;;;;;;;;;;;;;;;;;5061437;28;1180;-76
2021/12/27 10:23:13;;;;;;;;;;;;;;;;;;5051073;28;1281;-75
2021/12/27 10:25:39;;;;;;;;;;;;;;;;;;5086415;28;1192;-76
2021/12/27 10:28:04;;;;;;;;;;;;;;;;;;5068443;28;1886;-75
2021/12/27 10:30:35;;;;;;;;;;;;;;;;;;5067122;28;1246;-74
2021/12/27 10:33:08;;;;;;;;;;;;;;;;;;5065247;28;1303;-75
2021/12/27 10:35:40;;;;;;;;;;;;;;;;;;5061645;28;1372;-75
2021/12/27 10:38:15;;;;;;;;;;;;;;;;;;5068723;28;1327;-76
2021/12/27 10:40:47;;;;;;;;;;;;;;;;;;5066016;28;1302;-76
2021/12/27 10:43:12;;;;;;;;;;;;;;;;;;5085608;28;1092;-77
2021/12/27 10:45:39;;;;;;;;;;;;;;;;;;5065632;28;1204;-76
2021/12/27 10:48:05;;;;;;;;;;;;;;;;;;5048590;28;1921;-76
2021/12/27 10:50:31;;;;;;;;;;;;;;;;;;5067843;28;1219;-74
2021/12/27 10:52:59;;;;;;;;;;;;;;;;;;5050118;28;1231;-75
2021/12/27 10:55:34;;;;;;;;;;;;;;;;;;5085520;28;1208;-75
2021/12/27 10:58:08;;;;;;;;;;;;;;;;;;5065495;28;1309;-75
2021/12/27 11:00:34;;;;;;;;;;;;;;;;;;5059483;28;1219;-75
2021/12/27 11:03:02;;;;;;;;;;;;;;;;;;5065318;28;1193;-76
2021/12/27 11:05:28;;;;;;;;;;;;;;;;;;5069670;28;1151;-76
2021/12/27 11:07:59;;;;;;;;;;;;;;;;;;5049732;28;1930;-75
2021/12/27 11:10:24;;;;;;;;;;;;;;;;;;5086129;28;1199;-76
2021/12/27 11:12:50;;;;;;;;;;;;;;;;;;5060569;28;1178;-76
2021/12/27 11:15:16;;;;;;;;;;;;;;;;;;5067354;28;1261;-76
2021/12/27 11:17:42;;;;;;;;;;;;;;;;;;5065258;28;1335;-78
2021/12/27 11:20:09;;;;;;;;;;;;;;;;;;5065470;28;1422;-77
2021/12/27 11:22:42;;;;;;;;;;;;;;;;;;5051761;28;1193;-77
2021/12/27 11:25:19;;;;;;;;;;;;;;;;;;5068137;28;1091;-78
2021/12/27 11:27:44;;;;;;;;;;;;;;;;;;5083791;28;1963;-78
2021/12/27 11:30:09;;;;;;;;;;;;;;;;;;5050225;28;1208;-76
2021/12/27 11:32:35;;;;;;;;;;;;;;;;;;5066601;28;1263;-76
2021/12/27 11:35:03;;;;;;;;;;;;;;;;;;5066113;28;1219;-76
2021/12/27 11:37:51;;;;;;;;;;;;;;;;;;5101576;28;1304;-76
2021/12/27 11:40:17;;;;;;;;;;;;;;;;;;5085479;28;1174;-75
2021/12/27 11:42:55;;;;;;;;;;;;;;;;;;5084176;28;1105;-77
2021/12/27 11:45:36;;;;;;;;;;;;;;;;;;5082845;28;1148;-76
2021/12/27 11:48:05;;;;;;;;;;;;;;;;;;5045734;28;1975;-77
2021/12/27 11:50:30;;;;;;;;;;;;;;;;;;5067253;28;1342;-77
2021/12/27 11:53:04;;;;;;;;;;;;;;;;;;5054890;28;1216;-77
2021/12/27 11:55:37;;;;;;;;;;;;;;;;;;5067608;28;1409;-78
2021/12/27 11:58:02;;;;;;;;;;;;;;;;;;5066152;28;1389;-78
2021/12/27 12:00:27;;;;;;;;;;;;;;;;;;5050003;28;1354;-77
2021/12/27 12:03:01;;;;;;;;;;;;;;;;;;5062273;28;1270;-77
2021/12/27 12:05:37;;;;;;;;;;;;;;;;;;5067911;28;1756;-77
2021/12/27 12:08:03;;;;;;;;;;;;;;;;;;5052381;28;2311;-77
2021/12/27 12:10:30;;;;;;;;;;;;;;;;;;5067302;28;1220;-78
2021/12/27 12:13:15;;;;;;;;;;;;;;;;;;5066403;28;1326;-77
2021/12/27 12:15:58;;;;;;;;;;;;;;;;;;5090043;28;1160;-76
2021/12/27 12:18:23;;;;;;;;;;;;;;;;;;5070217;28;1255;-75
2021/12/27 12:20:49;;;;;;;;;;;;;;;;;;5084050;28;1164;-76
2021/12/27 12:23:14;;;;;;;;;;;;;;;;;;5066399;28;1158;-75
2021/12/27 12:25:39;;;;;;;;;;;;;;;;;;5086147;28;1184;-76
2021/12/27 12:28:06;;;;;;;;;;;;;;;;;;5048428;28;1867;-77
2021/12/27 12:30:36;;;;;;;;;;;;;;;;;;5084473;28;1160;-76
2021/12/27 12:33:01;;;;;;;;;;;;;;;;;;5082133;28;1164;-77
2021/12/27 12:35:30;;;;;;;;;;;;;;;;;;5067501;28;1337;-76
2021/12/27 12:38:09;;;;;;;;;;;;;;;;;;5066251;28;1350;-76
2021/12/27 12:40:34;;;;;;;;;;;;;;;;;;5067201;28;1401;-77
2021/12/27 12:43:00;;;;;;;;;;;;;;;;;;5084559;28;1149;-76
2021/12/27 12:45:29;;;;;;;;;;;;;;;;;;5051880;28;1326;-77
2021/12/27 12:47:54;;;;;;;;;;;;;;;;;;5065354;28;1914;-76
2021/12/27 12:50:20;;;;;;;;;;;;;;;;;;5068515;28;1160;-77
2021/12/27 12:52:50;;;;;;;;;;;;;;;;;;5087468;28;1169;-76
2021/12/27 12:55:19;;;;;;;;;;;;;;;;;;5068992;28;1280;-78
2021/12/27 12:57:49;;;;;;;;;;;;;;;;;;5085829;28;1093;-78
2021/12/27 13:00:19;;;;;;;;;;;;;;;;;;5067043;28;1278;-77
2021/12/27 13:02:45;;;;;;;;;;;;;;;;;;5065373;28;1341;-77
2021/12/27 13:05:13;;;;;;;;;;;;;;;;;;5065762;28;1207;-76
2021/12/27 13:07:44;;;;;;;;;;;;;;;;;;5088149;28;1881;-76
2021/12/27 13:10:29;;;;;;;;;;;;;;;;;;5086409;28;1155;-76
2021/12/27 13:12:56;;;;;;;;;;;;;;;;;;5065993;28;1295;-76
2021/12/27 13:15:27;;;;;;;;;;;;;;;;;;5088666;28;1229;-76
2021/12/27 13:18:06;;;;;;;;;;;;;;;;;;5085558;28;1153;-77
2021/12/27 13:20:33;;;;;;;;;;;;;;;;;;5071984;28;1196;-76
2021/12/27 13:22:58;;;;;;;;;;;;;;;;;;5088391;28;1153;-77
2021/12/27 13:25:32;;;;;;;;;;;;;;;;;;5071674;28;1287;-77
2021/12/27 13:28:09;;;;;;;;;;;;;;;;;;5072952;28;1878;-76
2021/12/27 13:30:48;;;;;;;;;;;;;;;;;;5089469;28;1129;-78
2021/12/27 13:33:14;;;;;;;;;;;;;;;;;;5050625;28;1341;-77
2021/12/27 13:35:40;;;;;;;;;;;;;;;;;;5072072;28;1216;-77
2021/12/27 13:38:12;;;;;;;;;;;;;;;;;;5087485;28;1179;-76
2021/12/27 13:40:42;;;;;;;;;;;;;;;;;;5087506;28;1165;-77
2021/12/27 13:43:08;;;;;;;;;;;;;;;;;;5086822;28;1133;-76
2021/12/27 13:45:41;;;;;;;;;;;;;;;;;;5087112;28;1164;-76
2021/12/27 13:48:07;;;;;;;;;;;;;;;;;;5067847;28;1941;-76
2021/12/27 13:50:32;;;;;;;;;;;;;;;;;;5070534;28;1168;-77
2021/12/27 13:52:59;;;;;;;;;;;;;;;;;;5052549;28;1138;-77
2021/12/27 13:55:28;;;;;;;;;;;;;;;;;;5070169;28;1170;-77
2021/12/27 13:57:58;;;;;;;;;;;;;;;;;;5070375;28;1279;-77
2021/12/27 14:00:27;;;;;;;;;;;;;;;;;;5068047;28;1218;-76
2021/12/27 14:02:53;;;;;;;;;;;;;;;;;;5067673;28;1141;-77
2021/12/27 14:05:23;;;;;;;;;;;;;;;;;;5068688;28;1310;-77
2021/12/27 14:07:49;;;;;;;;;;;;;;;;;;5088767;28;1942;-77
2021/12/27 14:10:18;;;;;;;;;;;;;;;;;;5073753;28;1180;-78
2021/12/27 14:12:44;;;;;;;;;;;;;;;;;;5091542;28;1200;-76
2021/12/27 14:15:09;;;;;;;;;;;;;;;;;;5083928;28;1180;-77
2021/12/27 14:17:41;;;;;;;;;;;;;;;;;;5085453;28;1161;-76
2021/12/27 14:20:08;;;;;;;;;;;;;;;;;;5083728;28;1133;-77
2021/12/27 14:22:54;;;;;;;;;;;;;;;;;;5084465;28;1140;-75
2021/12/27 14:25:21;;;;;;;;;;;;;;;;;;5084080;28;1219;-75
2021/12/27 14:27:57;;;;;;;;;;;;;;;;;;5067688;28;1920;-75
2021/12/27 14:30:25;;;;;;;;;;;;;;;;;;5048710;28;1297;-74
2021/12/27 14:32:55;;;;;;;;;;;;;;;;;;5085378;28;1196;-75
2021/12/27 14:35:43;;;;;;;;;;;;;;;;;;5086315;28;1072;-76
2021/12/27 14:38:18;;;;;;;;;;;;;;;;;;5085158;28;1149;-75
2021/12/27 14:40:50;;;;;;;;;;;;;;;;;;5087853;28;1402;-75
2021/12/27 14:43:18;;;;;;;;;;;;;;;;;;5066746;28;1323;-75
2021/12/27 14:45:45;;;;;;;;;;;;;;;;;;5084921;28;1152;-74
2021/12/27 14:48:10;;;;;;;;;;;;;;;;;;5066100;28;1997;-75
2021/12/27 14:50:36;;;;;;;;;;;;;;;;;;5084191;28;1165;-75
2021/12/27 14:53:02;;;;;;;;;;;;;;;;;;5085855;28;1141;-75
2021/12/27 14:55:28;;;;;;;;;;;;;;;;;;5068196;28;1231;-76
2021/12/27 14:57:53;;;;;;;;;;;;;;;;;;5091656;28;1149;-76
2021/12/27 15:00:20;;;;;;;;;;;;;;;;;;5086319;28;1172;-76
2021/12/27 15:02:46;;;;;;;;;;;;;;;;;;5085572;28;1314;-76
2021/12/27 15:05:11;;;;;;;;;;;;;;;;;;5066121;28;1189;-71
2021/12/27 15:07:37;;;;;;;;;;;;;;;;;;5086647;28;1921;-74
2021/12/27 15:10:04;;;;;;;;;;;;;;;;;;5085345;28;1173;-75
2021/12/27 15:12:29;;;;;;;;;;;;;;;;;;5100384;28;1222;-76
2021/12/27 15:14:54;;;;;;;;;;;;;;;;;;5083972;28;1152;-76
2021/12/27 15:17:23;;;;;;;;;;;;;;;;;;5084462;28;1097;-76
2021/12/27 15:19:49;;;;;;;;;;;;;;;;;;5087438;28;1211;-76
2021/12/27 15:22:14;;;;;;;;;;;;;;;;;;5049647;28;1566;-77
2021/12/27 15:24:39;;;;;;;;;;;;;;;;;;5086557;28;1167;-76
2021/12/27 15:27:14;;;;;;;;;;;;;;;;;;5086828;28;1874;-77
2021/12/27 15:29:40;;;;;;;;;;;;;;;;;;5065779;28;1096;-77
2021/12/27 15:32:09;;;;;;;;;;;;;;;;;;5086432;28;1212;-78
2021/12/27 15:34:35;;;;;;;;;;;;;;;;;;5065725;28;1437;-77
2021/12/27 15:37:00;;;;;;;;;;;;;;;;;;5067123;28;1149;-77
2021/12/27 15:39:25;;;;;;;;;;;;;;;;;;5083742;28;1118;-77
2021/12/27 15:41:52;;;;;;;;;;;;;;;;;;5086227;28;1148;-77
2021/12/27 15:44:17;;;;;;;;;;;;;;;;;;5089080;28;1010;-77
2021/12/27 15:46:43;;;;;;;;;;;;;;;;;;5069527;28;1245;-76
2021/12/27 15:49:12;;;;;;;;;;;;;;;;;;5083655;28;1934;-77
2021/12/27 15:51:37;;;;;;;;;;;;;;;;;;5086171;28;1200;-76
2021/12/27 15:54:03;;;;;;;;;;;;;;;;;;5084945;28;1140;-76
2021/12/27 15:56:28;;;;;;;;;;;;;;;;;;5084459;28;1192;-75
2021/12/27 15:58:57;;;;;;;;;;;;;;;;;;5084201;28;1259;-76
2021/12/27 16:01:22;;;;;;;;;;;;;;;;;;5084319;28;1133;-75
2021/12/27 16:03:47;;;;;;;;;;;;;;;;;;5084788;28;1164;-77
2021/12/27 16:06:12;;;;;;;;;;;;;;;;;;5064422;28;1220;-76
2021/12/27 16:08:38;;;;;;;;;;;;;;;;;;5086154;28;1882;-77
2021/12/27 16:11:04;;;;;;;;;;;;;;;;;;5084028;28;1160;-78
2021/12/27 16:13:30;;;;;;;;;;;;;;;;;;5075274;28;1121;-79
2021/12/27 16:15:56;;;;;;;;;;;;;;;;;;5083839;28;1143;-77
2021/12/27 16:18:21;;;;;;;;;;;;;;;;;;5065953;28;1141;-78
2021/12/27 16:20:46;;;;;;;;;;;;;;;;;;5084991;28;1152;-77
2021/12/27 16:23:12;;;;;;;;;;;;;;;;;;5082872;28;1141;-77
2021/12/27 16:25:37;;;;;;;;;;;;;;;;;;5049472;28;1280;-77
2021/12/27 16:28:02;;;;;;;;;;;;;;;;;;5083874;28;1889;-80
2021/12/27 16:30:31;;;;;;;;;;;;;;;;;;5083117;28;1195;-78
2021/12/27 16:32:58;;;;;;;;;;;;;;;;;;5067442;28;1212;-79
2021/12/27 16:35:24;;;;;;;;;;;;;;;;;;5075646;28;1152;-77
2021/12/27 16:37:49;;;;;;;;;;;;;;;;;;5056817;28;1183;-77
2021/12/27 16:40:15;;;;;;;;;;;;;;;;;;5061914;28;1649;-78
2021/12/27 16:42:46;;;;;;;;;;;;;;;;;;5063622;28;1331;-86
2021/12/27 16:45:16;;;;;;;;;;;;;;;;;;5080529;28;1123;-85
2021/12/27 16:47:41;;;;;;;;;;;;;;;;;;5082394;28;1976;-83
2021/12/27 16:50:11;;;;;;;;;;;;;;;;;;5066898;28;1274;-84
2021/12/27 16:52:37;;;;;;;;;;;;;;;;;;5062521;28;1263;-84
2021/12/27 16:55:09;;;;;;;;;;;;;;;;;;5067365;28;1630;-86
2021/12/27 16:57:34;;;;;;;;;;;;;;;;;;5085886;28;1129;-83
2021/12/27 17:00:00;;;;;;;;;;;;;;;;;;5066969;28;1188;-83
2021/12/27 17:02:25;;;;;;;;;;;;;;;;;;5079821;28;1148;-87
2021/12/27 17:04:50;;;;;;;;;;;;;;;;;;5067565;28;1323;-86
2021/12/27 17:07:17;;;;;;;;;;;;;;;;;;5067009;28;1952;-87